Alpine Amalia — A8VN3 — position and weather

sailwx.info

Track history (hours):
 
Tides and Currents Weather Stations Pressure Air Temp Water Temp Dewpoint Dewpoint Depression Visibility Wind Speed Wind Dir Waves Ship Positions

Alpine Amalia

Last reported at 2018-Jan-27 13:42 UTC. Time now 2018-Feb-22 16:54 UTC.
Position S 31°03' E 031°02'.
Warning: this ship's position is 26 days out of date.

Length 244 m; draft 8.1 m.

Type: Tanker. MMSI: 636014635.

Date/timePositionNaut miles runAvg speedWind from/ knotsBaromVisibWave heightAir tempDewpointWater temp
2018-Jan-27 13:42S 31°03' E 031°02'614.6
2018-Jan-27 13:15S 30°58' E 031°06'414.5
2018-Jan-27 13:00S 30°55' E 031°09'714.7
2018-Jan-27 12:30S 30°50' E 031°14'815.5
2018-Jan-27 12:00S 30°43' E 031°19'815.8
2018-Jan-27 11:31S 30°37' E 031°25'816.0
2018-Jan-27 11:00S 30°31' E 031°31'815.8
2018-Jan-27 10:30S 30°25' E 031°36'815.7
2018-Jan-27 10:00S 30°18' E 031°42'815.9
2018-Jan-27 09:30S 30°12' E 031°47'815.9
2018-Jan-27 09:00S 30°06' E 031°53'815.8
2018-Jan-27 08:30S 29°60' E 031°59'815.8
2018-Jan-27 08:00S 29°53' E 032°04'815.6
2018-Jan-27 07:30S 29°47' E 032°10'815.5
2018-Jan-27 07:00S 29°41' E 032°15'815.5
2018-Jan-27 06:29S 29°34' E 032°21'715.8
2018-Jan-27 06:00S 29°28' E 032°26'916.6
2018-Jan-27 05:26S 29°21' E 032°33'816.9
2018-Jan-27 04:56S 29°14' E 032°39'1217.0
2018-Jan-27 04:14S 29°05' E 032°47'  
Track history (hours):
 
Tides and Currents Weather Stations Pressure Air Temp Water Temp Dewpoint Dewpoint Depression Visibility Wind Speed Wind Dir Waves Ship Positions

Alpine Amalia

Last reported at 2018-Jan-27 13:42 UTC. Time now 2018-Feb-22 16:54 UTC.
Position S 31°03' E 031°02'.
Warning: this ship's position is 26 days out of date.

Length 244 m; draft 8.1 m.

Type: Tanker. MMSI: 636014635.

Date/timePositionNaut miles runAvg speedWind from/ knotsBaromVisibWave heightAir tempDewpointWater temp
2018-Jan-27 13:42S 31°03' E 031°02'614.6
2018-Jan-27 13:15S 30°58' E 031°06'414.5
2018-Jan-27 13:00S 30°55' E 031°09'714.7
2018-Jan-27 12:30S 30°50' E 031°14'815.5
2018-Jan-27 12:00S 30°43' E 031°19'815.8
2018-Jan-27 11:31S 30°37' E 031°25'816.0
2018-Jan-27 11:00S 30°31' E 031°31'815.8
2018-Jan-27 10:30S 30°25' E 031°36'815.7
2018-Jan-27 10:00S 30°18' E 031°42'815.9
2018-Jan-27 09:30S 30°12' E 031°47'815.9
2018-Jan-27 09:00S 30°06' E 031°53'815.8
2018-Jan-27 08:30S 29°60' E 031°59'815.8
2018-Jan-27 08:00S 29°53' E 032°04'815.6
2018-Jan-27 07:30S 29°47' E 032°10'815.5
2018-Jan-27 07:00S 29°41' E 032°15'815.5
2018-Jan-27 06:29S 29°34' E 032°21'715.8
2018-Jan-27 06:00S 29°28' E 032°26'916.6
2018-Jan-27 05:26S 29°21' E 032°33'816.9
2018-Jan-27 04:56S 29°14' E 032°39'1217.0
2018-Jan-27 04:14S 29°05' E 032°47'  

Dump ship's entire track history